sensor_id;sensor_type;location;lat;lon;timestamp;P1;durP1;ratioP1;P2;durP2;ratioP2
14603;SDS011;7388;51.078;13.740;2023-03-05T00:00:50;7.80;;;2.90;;
14603;SDS011;7388;51.078;13.740;2023-03-05T00:03:16;7.83;;;2.60;;
14603;SDS011;7388;51.078;13.740;2023-03-05T00:05:41;10.10;;;3.13;;
14603;SDS011;7388;51.078;13.740;2023-03-05T00:08:07;11.63;;;2.77;;
14603;SDS011;7388;51.078;13.740;2023-03-05T00:10:33;8.87;;;2.20;;
14603;SDS011;7388;51.078;13.740;2023-03-05T00:12:58;8.60;;;2.80;;
14603;SDS011;7388;51.078;13.740;2023-03-05T00:15:24;7.23;;;3.07;;
14603;SDS011;7388;51.078;13.740;2023-03-05T00:17:50;10.47;;;3.27;;
14603;SDS011;7388;51.078;13.740;2023-03-05T00:20:15;10.60;;;2.60;;
14603;SDS011;7388;51.078;13.740;2023-03-05T00:22:41;10.70;;;3.07;;
14603;SDS011;7388;51.078;13.740;2023-03-05T00:25:07;5.27;;;2.57;;
14603;SDS011;7388;51.078;13.740;2023-03-05T00:27:33;6.93;;;3.03;;
14603;SDS011;7388;51.078;13.740;2023-03-05T00:29:59;10.90;;;2.50;;
14603;SDS011;7388;51.078;13.740;2023-03-05T00:32:24;8.33;;;2.77;;
14603;SDS011;7388;51.078;13.740;2023-03-05T00:34:50;5.77;;;2.53;;
14603;SDS011;7388;51.078;13.740;2023-03-05T00:37:16;4.27;;;2.50;;
14603;SDS011;7388;51.078;13.740;2023-03-05T00:39:41;9.50;;;2.73;;
14603;SDS011;7388;51.078;13.740;2023-03-05T00:42:07;4.07;;;1.60;;
14603;SDS011;7388;51.078;13.740;2023-03-05T00:44:33;8.90;;;2.63;;
14603;SDS011;7388;51.078;13.740;2023-03-05T00:46:59;14.37;;;2.87;;
14603;SDS011;7388;51.078;13.740;2023-03-05T00:49:24;7.53;;;2.33;;
14603;SDS011;7388;51.078;13.740;2023-03-05T00:51:50;13.20;;;3.30;;
14603;SDS011;7388;51.078;13.740;2023-03-05T00:54:16;3.93;;;1.50;;
14603;SDS011;7388;51.078;13.740;2023-03-05T00:56:42;5.33;;;2.60;;
14603;SDS011;7388;51.078;13.740;2023-03-05T00:59:08;11.30;;;3.10;;
14603;SDS011;7388;51.078;13.740;2023-03-05T01:01:34;8.98;;;2.95;;
14603;SDS011;7388;51.078;13.740;2023-03-05T01:03:59;6.70;;;2.30;;
14603;SDS011;7388;51.078;13.740;2023-03-05T01:06:26;7.70;;;3.00;;
14603;SDS011;7388;51.078;13.740;2023-03-05T01:08:53;8.93;;;2.63;;
14603;SDS011;7388;51.078;13.740;2023-03-05T01:11:20;6.20;;;2.50;;
14603;SDS011;7388;51.078;13.740;2023-03-05T01:13:46;7.88;;;2.55;;
14603;SDS011;7388;51.078;13.740;2023-03-05T01:16:12;9.60;;;2.57;;
14603;SDS011;7388;51.078;13.740;2023-03-05T01:18:38;8.93;;;2.30;;
14603;SDS011;7388;51.078;13.740;2023-03-05T01:21:04;4.93;;;2.38;;
14603;SDS011;7388;51.078;13.740;2023-03-05T01:23:30;14.27;;;2.90;;
14603;SDS011;7388;51.078;13.740;2023-03-05T01:25:58;16.30;;;2.60;;
14603;SDS011;7388;51.078;13.740;2023-03-05T01:28:24;8.25;;;2.55;;
14603;SDS011;7388;51.078;13.740;2023-03-05T01:30:50;9.55;;;2.78;;
14603;SDS011;7388;51.078;13.740;2023-03-05T01:33:16;4.43;;;2.37;;
14603;SDS011;7388;51.078;13.740;2023-03-05T01:35:44;11.60;;;2.50;;
14603;SDS011;7388;51.078;13.740;2023-03-05T01:38:14;7.97;;;2.55;;
14603;SDS011;7388;51.078;13.740;2023-03-05T01:40:40;11.32;;;2.55;;
14603;SDS011;7388;51.078;13.740;2023-03-05T01:45:36;4.10;;;1.88;;
14603;SDS011;7388;51.078;13.740;2023-03-05T01:48:03;5.63;;;1.77;;
14603;SDS011;7388;51.078;13.740;2023-03-05T01:50:29;4.88;;;2.35;;
14603;SDS011;7388;51.078;13.740;2023-03-05T01:52:57;6.68;;;2.67;;
14603;SDS011;7388;51.078;13.740;2023-03-05T01:55:26;13.60;;;2.85;;
14603;SDS011;7388;51.078;13.740;2023-03-05T01:57:56;7.20;;;1.88;;
14603;SDS011;7388;51.078;13.740;2023-03-05T02:00:38;8.25;;;1.80;;
14603;SDS011;7388;51.078;13.740;2023-03-05T02:03:08;11.27;;;2.38;;
14603;SDS011;7388;51.078;13.740;2023-03-05T02:05:37;10.73;;;2.25;;
14603;SDS011;7388;51.078;13.740;2023-03-05T02:08:06;8.20;;;2.67;;
14603;SDS011;7388;51.078;13.740;2023-03-05T02:10:36;12.38;;;2.95;;
14603;SDS011;7388;51.078;13.740;2023-03-05T02:13:05;3.75;;;1.50;;
14603;SDS011;7388;51.078;13.740;2023-03-05T02:15:37;14.88;;;2.35;;
14603;SDS011;7388;51.078;13.740;2023-03-05T02:18:04;6.30;;;2.17;;
14603;SDS011;7388;51.078;13.740;2023-03-05T02:20:41;5.10;;;1.30;;
14603;SDS011;7388;51.078;13.740;2023-03-05T02:23:10;4.20;;;2.70;;
14603;SDS011;7388;51.078;13.740;2023-03-05T02:25:35;7.27;;;2.63;;
14603;SDS011;7388;51.078;13.740;2023-03-05T02:30:38;7.53;;;3.67;;
14603;SDS011;7388;51.078;13.740;2023-03-05T02:33:04;21.80;;;3.60;;
14603;SDS011;7388;51.078;13.740;2023-03-05T02:35:30;10.83;;;1.83;;
14603;SDS011;7388;51.078;13.740;2023-03-05T02:37:56;6.10;;;2.03;;
14603;SDS011;7388;51.078;13.740;2023-03-05T02:40:22;16.33;;;3.50;;
14603;SDS011;7388;51.078;13.740;2023-03-05T02:42:48;4.53;;;1.67;;
14603;SDS011;7388;51.078;13.740;2023-03-05T02:45:14;6.90;;;2.20;;
14603;SDS011;7388;51.078;13.740;2023-03-05T02:47:40;14.85;;;2.70;;
14603;SDS011;7388;51.078;13.740;2023-03-05T02:50:06;7.73;;;1.87;;
14603;SDS011;7388;51.078;13.740;2023-03-05T02:52:34;4.15;;;1.50;;
14603;SDS011;7388;51.078;13.740;2023-03-05T02:55:00;5.47;;;2.17;;
14603;SDS011;7388;51.078;13.740;2023-03-05T02:57:26;4.90;;;1.90;;
14603;SDS011;7388;51.078;13.740;2023-03-05T02:59:51;4.67;;;1.60;;
14603;SDS011;7388;51.078;13.740;2023-03-05T03:02:17;9.40;;;3.50;;
14603;SDS011;7388;51.078;13.740;2023-03-05T03:04:43;5.97;;;2.20;;
14603;SDS011;7388;51.078;13.740;2023-03-05T03:07:10;5.75;;;1.83;;
14603;SDS011;7388;51.078;13.740;2023-03-05T03:09:37;7.10;;;2.55;;
14603;SDS011;7388;51.078;13.740;2023-03-05T03:12:04;4.50;;;2.05;;
14603;SDS011;7388;51.078;13.740;2023-03-05T03:14:34;4.93;;;1.60;;
14603;SDS011;7388;51.078;13.740;2023-03-05T03:17:06;6.72;;;1.90;;
14603;SDS011;7388;51.078;13.740;2023-03-05T03:19:33;3.42;;;1.55;;
14603;SDS011;7388;51.078;13.740;2023-03-05T03:22:00;13.88;;;2.35;;
14603;SDS011;7388;51.078;13.740;2023-03-05T03:24:26;5.85;;;2.17;;
14603;SDS011;7388;51.078;13.740;2023-03-05T03:26:53;7.03;;;2.17;;
14603;SDS011;7388;51.078;13.740;2023-03-05T03:29:19;7.67;;;2.40;;
14603;SDS011;7388;51.078;13.740;2023-03-05T03:31:44;7.20;;;2.10;;
14603;SDS011;7388;51.078;13.740;2023-03-05T03:34:11;5.40;;;2.03;;
14603;SDS011;7388;51.078;13.740;2023-03-05T03:36:39;8.05;;;1.60;;
14603;SDS011;7388;51.078;13.740;2023-03-05T03:39:05;8.68;;;3.50;;
14603;SDS011;7388;51.078;13.740;2023-03-05T03:41:34;3.20;;;1.70;;
14603;SDS011;7388;51.078;13.740;2023-03-05T03:44:00;6.13;;;1.40;;
14603;SDS011;7388;51.078;13.740;2023-03-05T03:46:32;7.18;;;3.78;;
14603;SDS011;7388;51.078;13.740;2023-03-05T03:48:59;4.00;;;2.20;;
14603;SDS011;7388;51.078;13.740;2023-03-05T03:51:25;4.63;;;1.63;;
14603;SDS011;7388;51.078;13.740;2023-03-05T03:53:51;2.80;;;1.23;;
14603;SDS011;7388;51.078;13.740;2023-03-05T03:56:17;6.33;;;1.83;;
14603;SDS011;7388;51.078;13.740;2023-03-05T03:58:43;3.57;;;1.17;;
14603;SDS011;7388;51.078;13.740;2023-03-05T04:01:09;12.43;;;1.52;;
14603;SDS011;7388;51.078;13.740;2023-03-05T04:03:34;6.93;;;1.70;;
14603;SDS011;7388;51.078;13.740;2023-03-05T04:06:00;4.50;;;1.40;;
14603;SDS011;7388;51.078;13.740;2023-03-05T04:08:26;3.47;;;1.43;;
14603;SDS011;7388;51.078;13.740;2023-03-05T04:10:52;4.17;;;1.50;;
14603;SDS011;7388;51.078;13.740;2023-03-05T04:13:17;4.07;;;1.20;;
14603;SDS011;7388;51.078;13.740;2023-03-05T04:15:43;6.03;;;1.97;;
14603;SDS011;7388;51.078;13.740;2023-03-05T04:18:10;4.73;;;1.10;;
14603;SDS011;7388;51.078;13.740;2023-03-05T04:20:35;6.25;;;1.52;;
14603;SDS011;7388;51.078;13.740;2023-03-05T04:23:01;6.00;;;2.13;;
14603;SDS011;7388;51.078;13.740;2023-03-05T04:25:27;3.53;;;1.80;;
14603;SDS011;7388;51.078;13.740;2023-03-05T04:27:53;4.03;;;1.17;;
14603;SDS011;7388;51.078;13.740;2023-03-05T04:30:18;5.03;;;1.23;;
14603;SDS011;7388;51.078;13.740;2023-03-05T04:32:44;3.27;;;1.47;;
14603;SDS011;7388;51.078;13.740;2023-03-05T04:35:10;3.27;;;1.43;;
14603;SDS011;7388;51.078;13.740;2023-03-05T04:37:36;4.57;;;1.07;;
14603;SDS011;7388;51.078;13.740;2023-03-05T04:40:01;3.53;;;1.40;;
14603;SDS011;7388;51.078;13.740;2023-03-05T04:42:29;3.08;;;1.05;;
14603;SDS011;7388;51.078;13.740;2023-03-05T04:44:54;3.20;;;1.60;;
14603;SDS011;7388;51.078;13.740;2023-03-05T04:47:20;7.77;;;1.97;;
14603;SDS011;7388;51.078;13.740;2023-03-05T04:49:46;2.57;;;1.20;;
14603;SDS011;7388;51.078;13.740;2023-03-05T04:52:12;4.97;;;1.00;;
14603;SDS011;7388;51.078;13.740;2023-03-05T04:54:39;15.23;;;2.38;;
14603;SDS011;7388;51.078;13.740;2023-03-05T04:57:05;4.03;;;1.60;;
14603;SDS011;7388;51.078;13.740;2023-03-05T04:59:31;5.03;;;1.67;;
14603;SDS011;7388;51.078;13.740;2023-03-05T05:01:57;4.50;;;1.57;;
14603;SDS011;7388;51.078;13.740;2023-03-05T05:04:22;4.30;;;1.87;;
14603;SDS011;7388;51.078;13.740;2023-03-05T05:06:48;4.73;;;1.33;;
14603;SDS011;7388;51.078;13.740;2023-03-05T05:09:14;3.90;;;1.17;;
14603;SDS011;7388;51.078;13.740;2023-03-05T05:11:40;6.50;;;2.10;;
14603;SDS011;7388;51.078;13.740;2023-03-05T05:14:05;3.67;;;1.30;;
14603;SDS011;7388;51.078;13.740;2023-03-05T05:16:31;5.83;;;2.43;;
14603;SDS011;7388;51.078;13.740;2023-03-05T05:18:57;9.60;;;1.92;;
14603;SDS011;7388;51.078;13.740;2023-03-05T05:21:23;4.80;;;2.00;;
14603;SDS011;7388;51.078;13.740;2023-03-05T05:23:49;3.30;;;1.50;;
14603;SDS011;7388;51.078;13.740;2023-03-05T05:26:14;3.60;;;1.77;;
14603;SDS011;7388;51.078;13.740;2023-03-05T05:28:41;4.67;;;2.13;;
14603;SDS011;7388;51.078;13.740;2023-03-05T05:31:12;3.63;;;1.90;;
14603;SDS011;7388;51.078;13.740;2023-03-05T05:33:39;6.28;;;2.45;;
14603;SDS011;7388;51.078;13.740;2023-03-05T05:36:06;3.22;;;2.00;;
14603;SDS011;7388;51.078;13.740;2023-03-05T05:38:33;7.60;;;1.95;;
14603;SDS011;7388;51.078;13.740;2023-03-05T05:41:03;4.13;;;1.67;;
14603;SDS011;7388;51.078;13.740;2023-03-05T05:43:31;3.05;;;1.88;;
14603;SDS011;7388;51.078;13.740;2023-03-05T05:46:00;8.07;;;2.28;;
14603;SDS011;7388;51.078;13.740;2023-03-05T05:48:31;4.95;;;1.75;;
14603;SDS011;7388;51.078;13.740;2023-03-05T05:50:58;3.60;;;2.60;;
14603;SDS011;7388;51.078;13.740;2023-03-05T05:53:28;3.92;;;1.85;;
14603;SDS011;7388;51.078;13.740;2023-03-05T05:55:54;4.47;;;1.40;;
14603;SDS011;7388;51.078;13.740;2023-03-05T05:58:20;4.53;;;2.50;;
14603;SDS011;7388;51.078;13.740;2023-03-05T06:00:45;3.93;;;2.10;;
14603;SDS011;7388;51.078;13.740;2023-03-05T06:03:11;12.60;;;2.97;;
14603;SDS011;7388;51.078;13.740;2023-03-05T06:05:37;4.30;;;1.90;;
14603;SDS011;7388;51.078;13.740;2023-03-05T06:08:04;5.68;;;2.30;;
14603;SDS011;7388;51.078;13.740;2023-03-05T06:10:30;6.80;;;2.20;;
14603;SDS011;7388;51.078;13.740;2023-03-05T06:12:56;3.80;;;2.17;;
14603;SDS011;7388;51.078;13.740;2023-03-05T06:15:21;4.70;;;2.07;;
14603;SDS011;7388;51.078;13.740;2023-03-05T06:17:47;6.07;;;2.63;;
14603;SDS011;7388;51.078;13.740;2023-03-05T06:20:13;4.53;;;1.60;;
14603;SDS011;7388;51.078;13.740;2023-03-05T06:22:39;6.53;;;2.22;;
14603;SDS011;7388;51.078;13.740;2023-03-05T06:25:05;2.50;;;1.60;;
14603;SDS011;7388;51.078;13.740;2023-03-05T06:27:33;6.18;;;2.00;;
14603;SDS011;7388;51.078;13.740;2023-03-05T06:29:59;3.95;;;1.38;;
14603;SDS011;7388;51.078;13.740;2023-03-05T06:32:25;4.03;;;1.43;;
14603;SDS011;7388;51.078;13.740;2023-03-05T06:34:51;2.43;;;1.20;;
14603;SDS011;7388;51.078;13.740;2023-03-05T06:37:17;3.53;;;1.97;;
14603;SDS011;7388;51.078;13.740;2023-03-05T06:39:43;2.13;;;1.10;;
14603;SDS011;7388;51.078;13.740;2023-03-05T06:42:08;1.90;;;1.02;;
14603;SDS011;7388;51.078;13.740;2023-03-05T06:44:37;4.00;;;1.60;;
14603;SDS011;7388;51.078;13.740;2023-03-05T06:47:04;4.68;;;1.60;;
14603;SDS011;7388;51.078;13.740;2023-03-05T06:49:31;2.30;;;1.05;;
14603;SDS011;7388;51.078;13.740;2023-03-05T06:51:57;3.80;;;1.20;;
14603;SDS011;7388;51.078;13.740;2023-03-05T06:54:23;3.23;;;1.47;;
14603;SDS011;7388;51.078;13.740;2023-03-05T06:56:48;2.80;;;1.13;;
14603;SDS011;7388;51.078;13.740;2023-03-05T06:59:14;2.90;;;1.23;;
14603;SDS011;7388;51.078;13.740;2023-03-05T07:01:41;2.60;;;1.45;;
14603;SDS011;7388;51.078;13.740;2023-03-05T07:04:08;8.57;;;1.60;;
14603;SDS011;7388;51.078;13.740;2023-03-05T07:06:36;1.88;;;1.13;;
14603;SDS011;7388;51.078;13.740;2023-03-05T07:09:03;1.45;;;1.08;;
14603;SDS011;7388;51.078;13.740;2023-03-05T07:11:29;3.88;;;1.17;;
14603;SDS011;7388;51.078;13.740;2023-03-05T07:13:55;5.33;;;1.50;;
14603;SDS011;7388;51.078;13.740;2023-03-05T07:16:22;2.97;;;1.30;;
14603;SDS011;7388;51.078;13.740;2023-03-05T07:18:50;8.25;;;2.60;;
14603;SDS011;7388;51.078;13.740;2023-03-05T07:21:17;2.85;;;1.00;;
14603;SDS011;7388;51.078;13.740;2023-03-05T07:23:48;2.03;;;1.25;;
14603;SDS011;7388;51.078;13.740;2023-03-05T07:26:15;2.78;;;0.98;;
14603;SDS011;7388;51.078;13.740;2023-03-05T07:28:41;3.08;;;1.25;;
14603;SDS011;7388;51.078;13.740;2023-03-05T07:31:09;1.52;;;0.85;;
14603;SDS011;7388;51.078;13.740;2023-03-05T07:33:37;1.35;;;0.90;;
14603;SDS011;7388;51.078;13.740;2023-03-05T07:36:03;2.00;;;1.17;;
14603;SDS011;7388;51.078;13.740;2023-03-05T07:38:31;7.05;;;1.30;;
14603;SDS011;7388;51.078;13.740;2023-03-05T07:41:00;1.87;;;1.07;;
14603;SDS011;7388;51.078;13.740;2023-03-05T07:43:31;3.22;;;1.05;;
14603;SDS011;7388;51.078;13.740;2023-03-05T07:45:56;3.20;;;1.20;;
14603;SDS011;7388;51.078;13.740;2023-03-05T07:48:22;2.90;;;1.47;;
14603;SDS011;7388;51.078;13.740;2023-03-05T07:50:49;2.88;;;1.35;;
14603;SDS011;7388;51.078;13.740;2023-03-05T07:53:14;5.27;;;1.00;;
14603;SDS011;7388;51.078;13.740;2023-03-05T07:55:44;3.30;;;0.97;;
14603;SDS011;7388;51.078;13.740;2023-03-05T07:58:11;5.03;;;1.23;;
14603;SDS011;7388;51.078;13.740;2023-03-05T08:00:38;2.03;;;1.10;;
14603;SDS011;7388;51.078;13.740;2023-03-05T08:03:04;8.05;;;2.17;;
14603;SDS011;7388;51.078;13.740;2023-03-05T08:05:30;3.50;;;1.38;;
14603;SDS011;7388;51.078;13.740;2023-03-05T08:07:56;2.33;;;1.20;;
14603;SDS011;7388;51.078;13.740;2023-03-05T08:10:22;5.45;;;1.88;;
14603;SDS011;7388;51.078;13.740;2023-03-05T08:12:48;6.50;;;1.37;;
14603;SDS011;7388;51.078;13.740;2023-03-05T08:15:13;2.53;;;1.40;;
14603;SDS011;7388;51.078;13.740;2023-03-05T08:17:39;7.03;;;1.60;;
14603;SDS011;7388;51.078;13.740;2023-03-05T08:20:05;2.00;;;1.17;;
14603;SDS011;7388;51.078;13.740;2023-03-05T08:22:34;4.05;;;1.05;;
14603;SDS011;7388;51.078;13.740;2023-03-05T08:25:03;6.57;;;1.75;;
14603;SDS011;7388;51.078;13.740;2023-03-05T08:27:30;1.83;;;1.27;;
14603;SDS011;7388;51.078;13.740;2023-03-05T08:29:56;2.15;;;1.02;;
14603;SDS011;7388;51.078;13.740;2023-03-05T08:32:22;3.43;;;1.17;;
14603;SDS011;7388;51.078;13.740;2023-03-05T08:34:48;4.50;;;1.85;;
14603;SDS011;7388;51.078;13.740;2023-03-05T08:37:14;5.63;;;1.83;;
14603;SDS011;7388;51.078;13.740;2023-03-05T08:39:39;1.93;;;1.20;;
14603;SDS011;7388;51.078;13.740;2023-03-05T08:42:05;2.00;;;1.03;;
14603;SDS011;7388;51.078;13.740;2023-03-05T08:44:31;2.83;;;1.97;;
14603;SDS011;7388;51.078;13.740;2023-03-05T08:46:57;4.13;;;1.80;;
14603;SDS011;7388;51.078;13.740;2023-03-05T08:49:22;4.03;;;2.23;;
14603;SDS011;7388;51.078;13.740;2023-03-05T08:51:48;2.80;;;1.70;;
14603;SDS011;7388;51.078;13.740;2023-03-05T08:54:14;5.03;;;2.20;;
14603;SDS011;7388;51.078;13.740;2023-03-05T08:56:40;3.40;;;2.50;;
14603;SDS011;7388;51.078;13.740;2023-03-05T08:59:05;3.73;;;2.70;;
14603;SDS011;7388;51.078;13.740;2023-03-05T09:01:32;3.97;;;2.00;;
14603;SDS011;7388;51.078;13.740;2023-03-05T09:03:58;3.00;;;1.87;;
14603;SDS011;7388;51.078;13.740;2023-03-05T09:06:25;2.80;;;2.22;;
14603;SDS011;7388;51.078;13.740;2023-03-05T09:08:52;2.85;;;1.92;;
14603;SDS011;7388;51.078;13.740;2023-03-05T09:11:19;4.45;;;2.35;;
14603;SDS011;7388;51.078;13.740;2023-03-05T09:13:44;3.58;;;2.65;;
14603;SDS011;7388;51.078;13.740;2023-03-05T09:16:11;5.03;;;3.00;;
14603;SDS011;7388;51.078;13.740;2023-03-05T09:18:39;3.28;;;2.40;;
14603;SDS011;7388;51.078;13.740;2023-03-05T09:21:10;4.97;;;2.75;;
14603;SDS011;7388;51.078;13.740;2023-03-05T09:23:37;6.10;;;3.17;;
14603;SDS011;7388;51.078;13.740;2023-03-05T09:26:04;6.20;;;3.90;;
14603;SDS011;7388;51.078;13.740;2023-03-05T09:28:31;4.70;;;2.67;;
14603;SDS011;7388;51.078;13.740;2023-03-05T09:30:56;10.17;;;3.27;;
14603;SDS011;7388;51.078;13.740;2023-03-05T09:33:27;5.55;;;3.38;;
14603;SDS011;7388;51.078;13.740;2023-03-05T09:35:53;8.40;;;3.70;;
14603;SDS011;7388;51.078;13.740;2023-03-05T09:38:18;5.67;;;3.10;;
14603;SDS011;7388;51.078;13.740;2023-03-05T09:41:04;4.93;;;2.90;;
14603;SDS011;7388;51.078;13.740;2023-03-05T09:55:12;6.75;;;3.47;;
14603;SDS011;7388;51.078;13.740;2023-03-05T09:57:44;5.10;;;3.88;;
14603;SDS011;7388;51.078;13.740;2023-03-05T10:00:33;5.45;;;3.40;;
14603;SDS011;7388;51.078;13.740;2023-03-05T10:03:09;6.22;;;3.50;;
14603;SDS011;7388;51.078;13.740;2023-03-05T10:15:15;17.30;;;6.88;;
14603;SDS011;7388;51.078;13.740;2023-03-05T10:26:58;5.57;;;2.92;;
14603;SDS011;7388;51.078;13.740;2023-03-05T10:29:11;5.50;;;3.40;;
14603;SDS011;7388;51.078;13.740;2023-03-05T10:32:07;6.90;;;3.55;;
14603;SDS011;7388;51.078;13.740;2023-03-05T10:44:57;4.18;;;3.78;;
14603;SDS011;7388;51.078;13.740;2023-03-05T10:49:59;2.60;;;1.40;;
14603;SDS011;7388;51.078;13.740;2023-03-05T10:52:39;3.30;;;1.70;;
14603;SDS011;7388;51.078;13.740;2023-03-05T10:55:14;3.22;;;1.60;;
14603;SDS011;7388;51.078;13.740;2023-03-05T10:57:42;3.63;;;1.70;;
14603;SDS011;7388;51.078;13.740;2023-03-05T11:00:15;5.07;;;2.17;;
14603;SDS011;7388;51.078;13.740;2023-03-05T11:13:48;2.65;;;1.98;;
14603;SDS011;7388;51.078;13.740;2023-03-05T11:16:22;3.25;;;2.70;;
14603;SDS011;7388;51.078;13.740;2023-03-05T11:19:10;4.20;;;2.00;;
14603;SDS011;7388;51.078;13.740;2023-03-05T11:27:38;4.07;;;1.90;;
14603;SDS011;7388;51.078;13.740;2023-03-05T11:30:32;1.80;;;1.30;;
14603;SDS011;7388;51.078;13.740;2023-03-05T11:33:21;3.75;;;2.05;;
14603;SDS011;7388;51.078;13.740;2023-03-05T11:35:48;2.03;;;1.77;;
14603;SDS011;7388;51.078;13.740;2023-03-05T11:38:19;4.15;;;2.30;;
14603;SDS011;7388;51.078;13.740;2023-03-05T11:40:51;4.78;;;2.20;;
14603;SDS011;7388;51.078;13.740;2023-03-05T11:43:20;4.05;;;2.55;;
14603;SDS011;7388;51.078;13.740;2023-03-05T11:45:51;4.22;;;3.22;;
14603;SDS011;7388;51.078;13.740;2023-03-05T11:48:24;6.82;;;2.92;;
14603;SDS011;7388;51.078;13.740;2023-03-05T11:50:57;3.28;;;2.30;;
14603;SDS011;7388;51.078;13.740;2023-03-05T11:53:30;4.20;;;2.72;;
14603;SDS011;7388;51.078;13.740;2023-03-05T11:56:03;4.85;;;2.72;;
14603;SDS011;7388;51.078;13.740;2023-03-05T11:58:45;6.15;;;2.15;;
14603;SDS011;7388;51.078;13.740;2023-03-05T12:01:26;11.88;;;2.33;;
14603;SDS011;7388;51.078;13.740;2023-03-05T12:03:55;3.30;;;2.28;;
14603;SDS011;7388;51.078;13.740;2023-03-05T12:06:38;6.28;;;3.17;;
14603;SDS011;7388;51.078;13.740;2023-03-05T12:09:20;5.57;;;3.67;;
14603;SDS011;7388;51.078;13.740;2023-03-05T12:12:11;4.70;;;3.42;;
14603;SDS011;7388;51.078;13.740;2023-03-05T12:14:47;6.00;;;4.00;;
14603;SDS011;7388;51.078;13.740;2023-03-05T12:17:23;8.57;;;3.70;;
14603;SDS011;7388;51.078;13.740;2023-03-05T12:22:42;9.20;;;4.97;;
14603;SDS011;7388;51.078;13.740;2023-03-05T12:25:27;6.15;;;3.85;;
14603;SDS011;7388;51.078;13.740;2023-03-05T12:27:59;6.43;;;4.85;;
14603;SDS011;7388;51.078;13.740;2023-03-05T12:33:04;8.93;;;4.15;;
14603;SDS011;7388;51.078;13.740;2023-03-05T12:35:50;8.88;;;4.88;;
14603;SDS011;7388;51.078;13.740;2023-03-05T12:38:16;14.50;;;5.00;;
14603;SDS011;7388;51.078;13.740;2023-03-05T12:40:52;9.52;;;3.80;;
14603;SDS011;7388;51.078;13.740;2023-03-05T12:43:37;6.55;;;4.32;;
14603;SDS011;7388;51.078;13.740;2023-03-05T12:46:20;14.07;;;5.30;;
14603;SDS011;7388;51.078;13.740;2023-03-05T12:48:47;8.15;;;4.55;;
14603;SDS011;7388;51.078;13.740;2023-03-05T12:51:13;6.23;;;3.60;;
14603;SDS011;7388;51.078;13.740;2023-03-05T12:53:50;8.32;;;4.32;;
14603;SDS011;7388;51.078;13.740;2023-03-05T12:56:18;4.50;;;3.50;;
14603;SDS011;7388;51.078;13.740;2023-03-05T12:58:50;4.35;;;3.45;;
14603;SDS011;7388;51.078;13.740;2023-03-05T13:03:56;4.55;;;3.97;;
14603;SDS011;7388;51.078;13.740;2023-03-05T13:06:30;3.92;;;3.30;;
14603;SDS011;7388;51.078;13.740;2023-03-05T13:08:59;10.75;;;3.50;;
14603;SDS011;7388;51.078;13.740;2023-03-05T13:11:29;7.53;;;3.65;;
14603;SDS011;7388;51.078;13.740;2023-03-05T13:14:00;6.25;;;3.28;;
14603;SDS011;7388;51.078;13.740;2023-03-05T13:16:28;6.05;;;3.38;;
14603;SDS011;7388;51.078;13.740;2023-03-05T13:19:00;7.85;;;3.35;;
14603;SDS011;7388;51.078;13.740;2023-03-05T13:21:27;5.22;;;3.13;;
14603;SDS011;7388;51.078;13.740;2023-03-05T13:23:58;4.25;;;3.10;;
14603;SDS011;7388;51.078;13.740;2023-03-05T13:26:26;4.40;;;3.22;;
14603;SDS011;7388;51.078;13.740;2023-03-05T13:31:27;9.32;;;3.75;;
14603;SDS011;7388;51.078;13.740;2023-03-05T13:33:55;7.10;;;3.60;;
14603;SDS011;7388;51.078;13.740;2023-03-05T13:36:24;4.15;;;3.00;;
14603;SDS011;7388;51.078;13.740;2023-03-05T13:38:51;5.20;;;2.85;;
14603;SDS011;7388;51.078;13.740;2023-03-05T13:41:19;5.93;;;4.20;;
14603;SDS011;7388;51.078;13.740;2023-03-05T13:43:53;4.25;;;3.33;;
14603;SDS011;7388;51.078;13.740;2023-03-05T13:46:22;5.00;;;2.92;;
14603;SDS011;7388;51.078;13.740;2023-03-05T13:48:48;3.97;;;2.83;;
14603;SDS011;7388;51.078;13.740;2023-03-05T13:51:13;6.90;;;3.70;;
14603;SDS011;7388;51.078;13.740;2023-03-05T13:53:41;4.47;;;2.92;;
14603;SDS011;7388;51.078;13.740;2023-03-05T13:56:08;5.30;;;3.27;;
14603;SDS011;7388;51.078;13.740;2023-03-05T13:58:42;5.85;;;3.88;;
14603;SDS011;7388;51.078;13.740;2023-03-05T14:03:57;5.25;;;3.45;;
14603;SDS011;7388;51.078;13.740;2023-03-05T14:06:40;4.28;;;3.85;;
14603;SDS011;7388;51.078;13.740;2023-03-05T14:14:51;8.98;;;4.20;;
14603;SDS011;7388;51.078;13.740;2023-03-05T14:20:05;6.80;;;4.18;;
14603;SDS011;7388;51.078;13.740;2023-03-05T14:22:39;6.88;;;4.20;;
14603;SDS011;7388;51.078;13.740;2023-03-05T14:25:24;4.00;;;3.60;;
14603;SDS011;7388;51.078;13.740;2023-03-05T14:28:01;4.05;;;3.15;;
14603;SDS011;7388;51.078;13.740;2023-03-05T14:30:28;5.82;;;4.20;;
14603;SDS011;7388;51.078;13.740;2023-03-05T14:32:55;6.07;;;3.20;;
14603;SDS011;7388;51.078;13.740;2023-03-05T14:35:23;4.55;;;3.10;;
14603;SDS011;7388;51.078;13.740;2023-03-05T14:37:52;8.60;;;4.25;;
14603;SDS011;7388;51.078;13.740;2023-03-05T14:40:22;7.25;;;3.08;;
14603;SDS011;7388;51.078;13.740;2023-03-05T14:42:53;7.60;;;3.17;;
14603;SDS011;7388;51.078;13.740;2023-03-05T14:45:30;7.35;;;2.95;;
14603;SDS011;7388;51.078;13.740;2023-03-05T14:48:02;5.30;;;2.60;;
14603;SDS011;7388;51.078;13.740;2023-03-05T14:50:31;4.13;;;2.45;;
14603;SDS011;7388;51.078;13.740;2023-03-05T14:53:23;3.80;;;2.47;;
14603;SDS011;7388;51.078;13.740;2023-03-05T14:55:52;3.65;;;2.38;;
14603;SDS011;7388;51.078;13.740;2023-03-05T14:58:22;3.60;;;2.13;;
14603;SDS011;7388;51.078;13.740;2023-03-05T15:00:53;3.90;;;2.05;;
14603;SDS011;7388;51.078;13.740;2023-03-05T15:03:19;2.33;;;1.60;;
14603;SDS011;7388;51.078;13.740;2023-03-05T15:05:47;4.25;;;1.60;;
14603;SDS011;7388;51.078;13.740;2023-03-05T15:08:16;2.80;;;2.10;;
14603;SDS011;7388;51.078;13.740;2023-03-05T15:10:42;4.00;;;3.00;;
14603;SDS011;7388;51.078;13.740;2023-03-05T15:13:08;5.10;;;2.67;;
14603;SDS011;7388;51.078;13.740;2023-03-05T15:15:34;3.50;;;2.60;;
14603;SDS011;7388;51.078;13.740;2023-03-05T15:18:00;4.40;;;2.67;;
14603;SDS011;7388;51.078;13.740;2023-03-05T15:20:27;4.10;;;2.50;;
14603;SDS011;7388;51.078;13.740;2023-03-05T15:22:54;9.90;;;3.08;;
14603;SDS011;7388;51.078;13.740;2023-03-05T15:25:20;7.33;;;3.70;;
14603;SDS011;7388;51.078;13.740;2023-03-05T15:27:48;3.88;;;2.90;;
14603;SDS011;7388;51.078;13.740;2023-03-05T15:30:28;5.28;;;3.67;;
14603;SDS011;7388;51.078;13.740;2023-03-05T15:33:05;3.88;;;2.70;;
14603;SDS011;7388;51.078;13.740;2023-03-05T15:35:33;3.58;;;2.80;;
14603;SDS011;7388;51.078;13.740;2023-03-05T15:37:59;4.70;;;3.47;;
14603;SDS011;7388;51.078;13.740;2023-03-05T15:40:25;3.30;;;2.90;;
14603;SDS011;7388;51.078;13.740;2023-03-05T15:42:53;3.83;;;3.00;;
14603;SDS011;7388;51.078;13.740;2023-03-05T15:45:19;9.32;;;3.60;;
14603;SDS011;7388;51.078;13.740;2023-03-05T15:47:47;6.10;;;2.97;;
14603;SDS011;7388;51.078;13.740;2023-03-05T15:50:14;3.03;;;2.67;;
14603;SDS011;7388;51.078;13.740;2023-03-05T15:52:39;4.73;;;2.97;;
14603;SDS011;7388;51.078;13.740;2023-03-05T15:55:05;4.97;;;3.40;;
14603;SDS011;7388;51.078;13.740;2023-03-05T15:57:33;3.15;;;2.75;;
14603;SDS011;7388;51.078;13.740;2023-03-05T16:00:02;4.43;;;3.10;;
14603;SDS011;7388;51.078;13.740;2023-03-05T16:02:32;7.40;;;3.20;;
14603;SDS011;7388;51.078;13.740;2023-03-05T16:04:57;6.10;;;3.03;;
14603;SDS011;7388;51.078;13.740;2023-03-05T16:07:23;5.00;;;3.00;;
14603;SDS011;7388;51.078;13.740;2023-03-05T16:09:49;3.57;;;3.07;;
14603;SDS011;7388;51.078;13.740;2023-03-05T16:12:17;6.20;;;3.83;;
14603;SDS011;7388;51.078;13.740;2023-03-05T16:14:47;5.25;;;2.95;;
14603;SDS011;7388;51.078;13.740;2023-03-05T16:17:14;5.15;;;2.85;;
14603;SDS011;7388;51.078;13.740;2023-03-05T16:19:41;4.65;;;3.53;;